createdAt,value
2018-07-19T00:01:28.365Z,5.40
2018-07-19T00:03:57.060Z,9.53
2018-07-19T00:06:25.688Z,7.70
2018-07-19T00:08:54.572Z,7.00
2018-07-19T00:11:23.560Z,5.73
2018-07-19T00:13:52.457Z,5.80
2018-07-19T00:16:22.178Z,5.33
2018-07-19T00:18:50.981Z,5.33
2018-07-19T00:21:19.720Z,5.03
2018-07-19T00:23:48.481Z,4.57
2018-07-19T00:26:17.273Z,4.97
2018-07-19T00:28:46.033Z,5.90
2018-07-19T00:31:14.872Z,3.93
2018-07-19T00:33:43.711Z,5.97
2018-07-19T00:36:12.508Z,4.60
2018-07-19T00:38:41.188Z,14.33
2018-07-19T00:41:09.861Z,6.20
2018-07-19T00:43:39.120Z,7.23
2018-07-19T00:46:09.913Z,6.40
2018-07-19T00:48:38.794Z,4.83
2018-07-19T00:51:07.985Z,5.50
2018-07-19T00:53:38.284Z,5.87
2018-07-19T00:56:07.335Z,4.63
2018-07-19T00:58:36.155Z,6.63
2018-07-19T01:01:04.929Z,5.63
2018-07-19T01:03:33.843Z,4.57
2018-07-19T01:06:02.600Z,5.20
2018-07-19T01:08:31.605Z,4.83
2018-07-19T01:11:00.404Z,5.10
2018-07-19T01:13:29.246Z,4.07
2018-07-19T01:15:58.144Z,5.07
2018-07-19T01:18:26.884Z,4.97
2018-07-19T01:20:55.645Z,4.90
2018-07-19T01:23:26.588Z,5.90
2018-07-19T01:25:55.219Z,4.20
2018-07-19T01:28:24.013Z,4.13
2018-07-19T01:30:52.800Z,4.53
2018-07-19T01:33:21.592Z,6.70
2018-07-19T01:35:50.385Z,4.03
2018-07-19T01:38:19.137Z,4.17
2018-07-19T01:40:47.916Z,5.00
2018-07-19T01:43:16.673Z,7.40
2018-07-19T01:45:45.516Z,3.77
2018-07-19T01:48:14.385Z,6.80
2018-07-19T01:50:43.052Z,3.70
2018-07-19T01:53:11.680Z,9.40
2018-07-19T01:55:40.702Z,4.47
2018-07-19T01:58:09.459Z,4.83
2018-07-19T02:00:39.171Z,6.60
2018-07-19T02:03:09.253Z,5.00
2018-07-19T02:05:38.385Z,4.23
2018-07-19T02:08:07.325Z,5.33
2018-07-19T02:10:36.558Z,6.00
2018-07-19T02:13:06.194Z,3.70
2018-07-19T02:15:34.944Z,4.57
2018-07-19T02:18:03.748Z,6.50
2018-07-19T02:20:32.606Z,5.07
2018-07-19T02:23:01.506Z,6.07
2018-07-19T02:25:31.339Z,4.50
2018-07-19T02:28:00.073Z,6.13
2018-07-19T02:30:28.870Z,4.40
2018-07-19T02:32:57.704Z,5.27
2018-07-19T02:35:26.456Z,3.47
2018-07-19T02:37:55.336Z,4.00
2018-07-19T02:40:24.722Z,5.00
2018-07-19T02:42:53.642Z,3.90
2018-07-19T02:45:22.433Z,3.23
2018-07-19T02:47:51.224Z,4.50
2018-07-19T02:50:20.009Z,3.77
2018-07-19T02:52:48.884Z,8.40
2018-07-19T02:55:17.669Z,4.20
2018-07-19T02:57:46.448Z,5.67
2018-07-19T03:00:15.249Z,3.83
2018-07-19T03:02:43.998Z,6.03
2018-07-19T03:05:12.834Z,4.20
2018-07-19T03:07:42.551Z,4.80
2018-07-19T03:10:11.389Z,4.47
2018-07-19T03:12:40.195Z,5.60
2018-07-19T03:15:09.273Z,4.13
2018-07-19T03:17:38.066Z,3.47
2018-07-19T03:20:06.901Z,4.27
2018-07-19T03:22:35.708Z,11.60
2018-07-19T03:25:04.505Z,7.10
2018-07-19T03:27:33.313Z,3.97
2018-07-19T03:30:02.113Z,6.00
2018-07-19T03:32:30.877Z,6.00
2018-07-19T03:34:59.673Z,4.50
2018-07-19T03:37:28.454Z,5.13
2018-07-19T03:39:57.252Z,4.70
2018-07-19T03:42:26.082Z,4.30
2018-07-19T03:44:54.832Z,6.40
2018-07-19T03:47:23.789Z,5.20
2018-07-19T03:49:52.612Z,4.53
2018-07-19T03:52:21.369Z,4.70
2018-07-19T03:54:50.320Z,4.87
2018-07-19T03:57:19.073Z,4.30
2018-07-19T03:59:47.925Z,4.97
2018-07-19T04:02:16.834Z,4.43
2018-07-19T04:04:45.593Z,4.97
2018-07-19T04:07:14.647Z,4.90
2018-07-19T04:09:43.400Z,6.13
2018-07-19T04:12:12.169Z,8.20
2018-07-19T04:14:41.241Z,8.97
2018-07-19T04:17:10.051Z,10.03
2018-07-19T04:19:38.846Z,6.10
2018-07-19T04:22:07.654Z,6.43
2018-07-19T04:24:36.853Z,6.40
2018-07-19T04:27:05.767Z,5.90
2018-07-19T04:29:34.561Z,6.10
2018-07-19T04:32:03.353Z,5.80
2018-07-19T04:34:32.156Z,6.43
2018-07-19T04:37:00.956Z,6.07
2018-07-19T04:39:29.764Z,6.37
2018-07-19T04:41:58.578Z,6.60
2018-07-19T04:44:27.455Z,7.40
2018-07-19T04:46:58.852Z,6.10
2018-07-19T04:49:31.109Z,8.77
2018-07-19T04:52:00.633Z,6.37
2018-07-19T04:54:29.488Z,6.50
2018-07-19T04:56:58.228Z,7.13
2018-07-19T04:59:27.033Z,6.50
2018-07-19T05:01:55.862Z,6.37
2018-07-19T05:04:24.581Z,7.73
2018-07-19T05:06:53.376Z,9.20
2018-07-19T05:09:22.241Z,6.97
2018-07-19T05:11:51.140Z,6.57
2018-07-19T05:14:20.049Z,10.47
2018-07-19T05:16:48.849Z,6.70
2018-07-19T05:19:17.848Z,7.00
2018-07-19T05:21:46.653Z,6.40
2018-07-19T05:24:15.408Z,6.50
2018-07-19T05:26:44.220Z,7.73
2018-07-19T05:29:13.053Z,6.87
2018-07-19T05:31:42.065Z,6.30
2018-07-19T05:34:10.848Z,6.80
2018-07-19T05:36:39.637Z,7.37
2018-07-19T05:39:10.621Z,6.23
2018-07-19T05:41:39.424Z,6.30
2018-07-19T05:44:08.561Z,5.70
2018-07-19T05:46:37.428Z,7.17
2018-07-19T05:49:06.349Z,9.13
2018-07-19T05:51:35.337Z,7.03
2018-07-19T05:54:04.241Z,5.80
2018-07-19T05:56:33.001Z,5.93
2018-07-19T05:59:01.794Z,7.00
2018-07-19T06:01:30.569Z,9.57
2018-07-19T06:03:59.349Z,5.80
2018-07-19T06:06:28.148Z,6.07
2018-07-19T06:08:57.060Z,5.80
2018-07-19T06:11:25.845Z,6.50
2018-07-19T06:13:54.598Z,5.90
2018-07-19T06:16:23.561Z,6.40
2018-07-19T06:18:52.357Z,16.27
2018-07-19T06:21:21.156Z,11.87
2018-07-19T06:23:49.944Z,7.77
2018-07-19T06:26:18.741Z,7.33
2018-07-19T06:28:47.561Z,11.40
2018-07-19T06:31:16.348Z,5.67
2018-07-19T06:33:45.145Z,9.30
2018-07-19T06:36:13.925Z,7.90
2018-07-19T06:38:42.768Z,6.37
2018-07-19T06:41:11.665Z,7.10
2018-07-19T06:43:40.368Z,7.33
2018-07-19T06:46:09.253Z,10.33
2018-07-19T06:48:38.178Z,6.60
2018-07-19T06:51:07.075Z,9.47
2018-07-19T06:53:35.844Z,5.70
2018-07-19T06:56:04.993Z,6.93
2018-07-19T06:58:33.800Z,8.03
2018-07-19T07:01:02.569Z,7.13
2018-07-19T07:03:31.427Z,11.13
2018-07-19T07:06:00.295Z,10.33
2018-07-19T07:08:29.093Z,7.10
2018-07-19T07:10:57.997Z,7.30
2018-07-19T07:13:26.756Z,7.70
2018-07-19T07:15:55.617Z,11.83
2018-07-19T07:18:24.413Z,6.90
2018-07-19T07:20:53.202Z,6.67
2018-07-19T07:23:22.033Z,6.63
2018-07-19T07:25:55.100Z,4.70
2018-07-19T07:28:25.122Z,6.23
2018-07-19T07:30:53.852Z,4.53
2018-07-19T07:33:22.740Z,5.43
2018-07-19T07:35:51.553Z,4.60
2018-07-19T07:38:20.440Z,5.40
2018-07-19T07:40:49.547Z,5.20
2018-07-19T07:43:18.356Z,5.33
2018-07-19T07:45:47.177Z,6.33
2018-07-19T07:48:15.943Z,5.00
2018-07-19T07:50:44.724Z,4.93
2018-07-19T07:53:13.561Z,4.20
2018-07-19T07:55:42.356Z,5.97
2018-07-19T07:58:11.157Z,5.77
2018-07-19T08:00:40.265Z,6.23
2018-07-19T08:03:09.070Z,6.07
2018-07-19T08:05:37.863Z,5.33
2018-07-19T08:08:06.648Z,5.47
2018-07-19T08:10:35.488Z,5.33
2018-07-19T08:13:04.283Z,6.60
2018-07-19T08:15:33.097Z,7.83
2018-07-19T08:18:01.897Z,7.93
2018-07-19T08:20:30.703Z,7.57
2018-07-19T08:22:59.777Z,8.57
2018-07-19T08:25:28.589Z,6.53
2018-07-19T08:27:57.343Z,9.17
2018-07-19T08:30:26.192Z,9.47
2018-07-19T08:32:55.089Z,7.17
2018-07-19T08:35:23.852Z,7.60
2018-07-19T08:37:52.641Z,7.27
2018-07-19T08:40:21.685Z,9.10
2018-07-19T08:42:50.484Z,10.70
2018-07-19T08:45:19.253Z,11.23
2018-07-19T08:47:48.061Z,10.93
2018-07-19T08:50:16.903Z,9.20
2018-07-19T08:52:45.700Z,7.90
2018-07-19T08:55:14.813Z,7.10
2018-07-19T08:57:43.581Z,8.87
2018-07-19T09:00:12.354Z,7.80
2018-07-19T09:02:41.146Z,10.00
2018-07-19T09:05:09.981Z,7.97
2018-07-19T09:07:38.744Z,12.90
2018-07-19T09:10:07.571Z,9.80
2018-07-19T09:12:36.337Z,8.10
2018-07-19T09:15:05.220Z,11.00
2018-07-19T09:17:34.094Z,11.57
2018-07-19T09:20:02.913Z,9.07
2018-07-19T09:22:31.737Z,7.97
2018-07-19T09:25:00.525Z,8.07
2018-07-19T09:27:29.425Z,9.50
2018-07-19T09:29:58.225Z,7.67
2018-07-19T09:32:27.017Z,6.77
2018-07-19T09:34:55.640Z,7.93
2018-07-19T09:37:24.324Z,7.70
2018-07-19T09:39:53.124Z,8.30
2018-07-19T09:42:21.937Z,8.43
2018-07-19T09:44:50.724Z,8.27
2018-07-19T09:47:19.524Z,9.37
2018-07-19T09:49:48.428Z,8.57
2018-07-19T09:52:17.324Z,9.40
2018-07-19T09:54:54.265Z,8.80
2018-07-19T09:57:23.061Z,13.63
2018-07-19T09:59:51.929Z,9.03
2018-07-19T10:02:20.733Z,8.63
2018-07-19T10:04:49.533Z,8.97
2018-07-19T10:07:18.429Z,8.90
2018-07-19T10:09:47.371Z,11.80
2018-07-19T10:12:16.137Z,8.53
2018-07-19T10:14:45.249Z,9.33
2018-07-19T10:17:14.037Z,8.77
2018-07-19T10:19:42.904Z,10.77
2018-07-19T10:22:11.756Z,9.97
2018-07-19T10:24:40.531Z,12.90
2018-07-19T10:27:09.336Z,9.87
2018-07-19T10:29:38.154Z,14.43
2018-07-19T10:32:07.013Z,9.93
2018-07-19T10:34:35.759Z,10.87
2018-07-19T10:37:04.641Z,11.60
2018-07-19T10:39:33.569Z,12.17
2018-07-19T10:42:02.349Z,12.10
2018-07-19T10:44:31.153Z,11.13
2018-07-19T10:46:59.968Z,11.60
2018-07-19T10:49:28.892Z,11.10
2018-07-19T10:51:57.673Z,11.27
2018-07-19T10:54:26.425Z,14.70
2018-07-19T10:56:55.222Z,11.77
2018-07-19T10:59:24.053Z,10.57
2018-07-19T11:01:52.876Z,14.00
2018-07-19T11:04:21.785Z,8.40
2018-07-19T11:06:50.685Z,8.40
2018-07-19T11:09:19.621Z,7.30
2018-07-19T11:11:48.372Z,7.07
2018-07-19T11:14:17.132Z,8.73
2018-07-19T11:16:45.938Z,11.00
2018-07-19T11:19:14.700Z,6.93
2018-07-19T11:21:43.504Z,7.87
2018-07-19T11:24:12.293Z,7.00
2018-07-19T11:26:41.409Z,11.67
2018-07-19T11:29:10.212Z,5.90
2018-07-19T11:31:38.985Z,7.10
2018-07-19T11:34:07.741Z,6.23
2018-07-19T11:39:11.758Z,9.60
2018-07-19T11:41:40.574Z,9.57
2018-07-19T11:44:09.313Z,7.17
2018-07-19T11:46:38.260Z,9.87
2018-07-19T11:49:07.060Z,5.27
2018-07-19T11:51:35.820Z,6.47
2018-07-19T11:54:04.656Z,4.97
2018-07-19T11:56:33.565Z,3.93
2018-07-19T11:59:02.344Z,4.43
2018-07-19T12:01:31.005Z,8.27
2018-07-19T12:03:59.841Z,4.03
2018-07-19T12:06:28.673Z,6.10
2018-07-19T12:08:57.424Z,4.83
2018-07-19T12:11:26.341Z,5.13
2018-07-19T12:13:55.396Z,4.27
2018-07-19T12:16:24.181Z,4.77
2018-07-19T12:18:52.985Z,7.87
2018-07-19T12:21:21.884Z,4.10
2018-07-19T12:23:50.632Z,5.17
2018-07-19T12:26:19.388Z,4.10
2018-07-19T12:28:48.177Z,3.80
2018-07-19T12:31:17.007Z,2.70
2018-07-19T12:33:45.778Z,3.50
2018-07-19T12:36:14.698Z,3.63
2018-07-19T12:38:43.468Z,5.70
2018-07-19T12:41:12.304Z,3.43
2018-07-19T12:43:41.132Z,3.27
2018-07-19T12:46:09.901Z,5.97
2018-07-19T12:48:39.096Z,4.40
2018-07-19T12:51:07.918Z,3.10
2018-07-19T12:53:36.693Z,5.37
2018-07-19T12:56:05.516Z,2.87
2018-07-19T12:58:34.308Z,3.47
2018-07-19T13:01:03.173Z,4.83
2018-07-19T13:03:31.969Z,2.33
2018-07-19T13:06:00.817Z,4.30
2018-07-19T13:08:29.625Z,4.83
2018-07-19T13:10:58.429Z,2.70
2018-07-19T13:13:27.237Z,3.13
2018-07-19T13:15:56.026Z,5.30
2018-07-19T13:18:24.841Z,4.00
2018-07-19T13:20:53.932Z,2.03
2018-07-19T13:23:23.148Z,2.40
2018-07-19T13:25:52.080Z,6.53
2018-07-19T13:28:21.082Z,2.27
2018-07-19T13:30:50.184Z,7.00
2018-07-19T13:33:18.961Z,3.20
2018-07-19T13:35:47.746Z,2.33
2018-07-19T13:38:16.545Z,2.70
2018-07-19T13:40:45.356Z,2.60
2018-07-19T13:43:14.169Z,2.50
2018-07-19T13:45:42.973Z,2.50
2018-07-19T13:48:11.803Z,2.27
2018-07-19T13:50:40.677Z,3.57
2018-07-19T13:53:39.425Z,2.93
2018-07-19T13:56:08.806Z,8.67
2018-07-19T13:58:38.376Z,1.40
2018-07-19T14:01:07.281Z,2.40
2018-07-19T14:03:36.325Z,2.97
2018-07-19T14:06:05.154Z,2.40
2018-07-19T14:08:33.920Z,2.23
2018-07-19T14:11:02.828Z,4.93
2018-07-19T14:13:33.497Z,2.20
2018-07-19T14:16:03.476Z,3.23
2018-07-19T14:18:32.301Z,1.50
2018-07-19T14:21:01.207Z,3.00
2018-07-19T14:23:30.010Z,1.53
2018-07-19T14:25:59.109Z,2.30
2018-07-19T14:28:27.916Z,1.70
2018-07-19T14:30:56.709Z,2.67
2018-07-19T14:33:25.296Z,3.13
2018-07-19T14:35:53.954Z,2.70
2018-07-19T14:38:22.745Z,2.23
2018-07-19T14:40:51.513Z,2.93
2018-07-19T14:43:20.430Z,1.67
2018-07-19T14:45:49.322Z,2.30
2018-07-19T14:48:18.329Z,1.40
2018-07-19T14:50:47.194Z,1.50
2018-07-19T14:53:16.033Z,1.73
2018-07-19T14:55:44.935Z,2.13
2018-07-19T14:58:13.981Z,2.93
2018-07-19T15:00:42.840Z,1.07
2018-07-19T15:03:11.754Z,1.43
2018-07-19T15:05:40.645Z,1.40
2018-07-19T15:08:09.581Z,0.90
2018-07-19T15:10:38.433Z,1.10
2018-07-19T15:13:07.460Z,2.07
2018-07-19T15:15:36.232Z,1.30
2018-07-19T15:18:04.985Z,1.17
2018-07-19T15:20:33.793Z,1.27
2018-07-19T15:23:02.549Z,1.00
2018-07-19T15:25:31.132Z,1.20
2018-07-19T15:28:00.714Z,4.43
2018-07-19T15:30:29.457Z,2.97
2018-07-19T15:32:58.281Z,1.50
2018-07-19T15:35:27.081Z,1.10
2018-07-19T15:37:56.089Z,1.13
2018-07-19T15:40:24.872Z,1.17
2018-07-19T15:42:53.693Z,1.63
2018-07-19T15:45:22.461Z,2.07
2018-07-19T15:47:51.292Z,1.67
2018-07-19T15:50:20.199Z,2.10
2018-07-19T15:52:48.953Z,3.40
2018-07-19T15:55:17.745Z,1.07
2018-07-19T15:57:46.508Z,1.30
2018-07-19T16:00:15.272Z,2.50
2018-07-19T16:02:44.312Z,1.30
2018-07-19T16:05:13.082Z,1.43
2018-07-19T16:07:41.845Z,1.10
2018-07-19T16:10:10.645Z,1.47
2018-07-19T16:12:39.406Z,1.13
2018-07-19T16:15:08.293Z,1.40
2018-07-19T16:17:37.108Z,2.17
2018-07-19T16:20:06.218Z,3.63
2018-07-19T16:22:35.021Z,1.53
2018-07-19T16:25:03.930Z,2.43
2018-07-19T16:27:32.681Z,4.70
2018-07-19T16:30:01.521Z,2.67
2018-07-19T16:32:30.532Z,1.60
2018-07-19T16:34:59.432Z,1.47
2018-07-19T16:37:28.245Z,1.50
2018-07-19T16:39:57.147Z,3.23
2018-07-19T16:42:25.945Z,5.50
2018-07-19T16:44:54.903Z,1.83
2018-07-19T16:47:23.745Z,2.33
2018-07-19T16:49:52.540Z,1.47
2018-07-19T16:52:21.354Z,2.50
2018-07-19T16:54:50.249Z,2.07
2018-07-19T16:57:19.010Z,1.53
2018-07-19T16:59:47.818Z,2.93
2018-07-19T17:02:16.672Z,2.60
2018-07-19T17:04:45.523Z,1.93
2018-07-19T17:07:14.596Z,4.50
2018-07-19T17:09:43.397Z,2.93
2018-07-19T17:12:12.165Z,1.43
2018-07-19T17:14:41.136Z,1.33
2018-07-19T17:17:10.015Z,1.07
2018-07-19T17:19:38.737Z,2.60
2018-07-19T17:22:07.871Z,2.80
2018-07-19T17:24:36.681Z,2.13
2018-07-19T17:27:05.449Z,1.27
2018-07-19T17:29:34.250Z,3.13
2018-07-19T17:32:03.008Z,1.43
2018-07-19T17:34:31.716Z,2.10
2018-07-19T17:37:00.384Z,2.60
2018-07-19T17:39:29.384Z,1.33
2018-07-19T17:41:58.294Z,2.50
2018-07-19T17:44:27.262Z,1.93
2018-07-19T17:46:56.197Z,1.80
2018-07-19T17:49:25.115Z,2.00
2018-07-19T17:51:54.108Z,2.90
2018-07-19T17:54:22.993Z,2.03
2018-07-19T17:56:52.200Z,2.53
2018-07-19T17:59:21.028Z,3.23
2018-07-19T18:01:49.807Z,9.23
2018-07-19T18:04:18.932Z,1.87
2018-07-19T18:06:47.734Z,3.87
2018-07-19T18:09:16.502Z,3.80
2018-07-19T18:11:45.305Z,2.03
2018-07-19T18:14:14.115Z,4.80
2018-07-19T18:16:42.962Z,2.40
2018-07-19T18:19:11.908Z,8.60
2018-07-19T18:21:40.661Z,3.07
2018-07-19T18:24:10.449Z,3.30
2018-07-19T18:26:39.577Z,4.20
2018-07-19T18:29:08.590Z,2.63
2018-07-19T18:31:37.425Z,2.80
2018-07-19T18:34:06.184Z,8.00
2018-07-19T18:36:35.093Z,2.43
2018-07-19T18:39:05.936Z,2.30
2018-07-19T18:41:37.276Z,2.40
2018-07-19T18:44:06.361Z,2.50
2018-07-19T18:46:35.152Z,2.47
2018-07-19T18:49:04.720Z,3.00
2018-07-19T18:51:33.527Z,4.70
2018-07-19T18:54:02.330Z,2.80
2018-07-19T18:56:31.540Z,2.07
2018-07-19T18:59:00.337Z,2.10
2018-07-19T19:01:29.110Z,3.50
2018-07-19T19:03:57.916Z,1.90
2018-07-19T19:06:26.750Z,2.43
2018-07-19T19:08:55.604Z,3.00
2018-07-19T19:11:24.367Z,2.40
2018-07-19T19:13:53.250Z,2.53
2018-07-19T19:16:22.020Z,2.53
2018-07-19T19:18:50.840Z,2.90
2018-07-19T19:21:19.670Z,7.17
2018-07-19T19:23:48.432Z,5.00
2018-07-19T19:26:17.238Z,2.93
2018-07-19T19:28:46.041Z,3.97
2018-07-19T19:31:14.852Z,3.57
2018-07-19T19:33:43.640Z,6.07
2018-07-19T19:36:12.397Z,3.03
2018-07-19T19:38:41.266Z,3.07
2018-07-19T19:41:10.014Z,3.37
2018-07-19T19:43:38.864Z,2.17
2018-07-19T19:46:07.709Z,2.53
2018-07-19T19:48:37.100Z,2.73
2018-07-19T19:51:07.441Z,2.33
2018-07-19T19:53:36.461Z,2.13
2018-07-19T19:56:05.229Z,5.70
2018-07-19T19:58:34.168Z,2.60
2018-07-19T20:01:03.045Z,2.07
2018-07-19T20:03:31.829Z,2.90
2018-07-19T20:06:00.466Z,2.70
2018-07-19T20:08:29.091Z,2.60
2018-07-19T20:10:58.137Z,2.80
2018-07-19T20:13:26.888Z,2.53
2018-07-19T20:15:55.732Z,2.30
2018-07-19T20:18:24.564Z,3.40
2018-07-19T20:20:53.369Z,1.90
2018-07-19T20:23:22.241Z,2.40
2018-07-19T20:25:51.010Z,2.37
2018-07-19T20:28:19.844Z,3.90
2018-07-19T20:30:48.632Z,2.33
2018-07-19T20:33:17.445Z,2.50
2018-07-19T20:35:46.201Z,2.20
2018-07-19T20:38:15.005Z,1.73
2018-07-19T20:40:43.808Z,3.03
2018-07-19T20:43:12.753Z,4.47
2018-07-19T20:45:41.590Z,3.37
2018-07-19T20:48:10.389Z,4.03
2018-07-19T20:50:39.521Z,3.10
2018-07-19T20:53:08.319Z,2.60
2018-07-19T20:55:37.078Z,3.10
2018-07-19T20:58:06.166Z,2.43
2018-07-19T21:00:35.076Z,2.80
2018-07-19T21:03:03.977Z,2.60
2018-07-19T21:05:33.001Z,2.07
2018-07-19T21:08:01.737Z,1.90
2018-07-19T21:10:30.896Z,3.23
2018-07-19T21:12:59.654Z,5.47
2018-07-19T21:15:28.498Z,3.10
2018-07-19T21:17:57.417Z,2.00
2018-07-19T21:20:26.201Z,2.93
2018-07-19T21:22:55.000Z,2.50
2018-07-19T21:25:23.810Z,3.07
2018-07-19T21:27:52.580Z,3.17
2018-07-19T21:30:21.342Z,3.63
2018-07-19T21:32:50.140Z,4.50
2018-07-19T21:35:19.009Z,5.60
2018-07-19T21:37:47.801Z,3.27
2018-07-19T21:40:16.572Z,2.93
2018-07-19T21:42:45.413Z,4.20
2018-07-19T21:45:14.225Z,2.60
2018-07-19T21:47:43.021Z,4.07
2018-07-19T21:50:11.809Z,2.67
2018-07-19T21:52:40.403Z,3.77
2018-07-19T21:55:09.084Z,3.40
2018-07-19T21:57:37.834Z,4.07
2018-07-19T22:00:08.145Z,6.30
2018-07-19T22:02:36.955Z,4.70
2018-07-19T22:05:05.700Z,4.20
2018-07-19T22:07:37.320Z,4.53
2018-07-19T22:10:06.069Z,3.00
2018-07-19T22:12:34.909Z,4.20
2018-07-19T22:15:04.069Z,3.30
2018-07-19T22:17:32.929Z,3.97
2018-07-19T22:20:01.830Z,3.70
2018-07-19T22:22:30.628Z,4.37
2018-07-19T22:24:59.421Z,3.50
2018-07-19T22:27:28.236Z,2.87
2018-07-19T22:29:57.001Z,5.57
2018-07-19T22:32:25.861Z,4.07
2018-07-19T22:34:54.697Z,3.27
2018-07-19T22:37:23.454Z,4.63
2018-07-19T22:39:52.249Z,6.87
2018-07-19T22:42:21.136Z,3.40
2018-07-19T22:44:49.949Z,3.77
2018-07-19T22:47:18.740Z,4.07
2018-07-19T22:49:47.513Z,5.37
2018-07-19T22:52:16.445Z,3.63
2018-07-19T22:54:45.352Z,4.40
2018-07-19T22:57:13.956Z,5.03
2018-07-19T22:59:42.580Z,3.43
2018-07-19T23:02:11.434Z,4.03
2018-07-19T23:04:40.144Z,8.23
2018-07-19T23:07:08.937Z,7.57
2018-07-19T23:09:37.752Z,3.97
2018-07-19T23:12:06.550Z,3.53
2018-07-19T23:14:35.305Z,8.20
2018-07-19T23:17:04.101Z,4.10
2018-07-19T23:19:32.888Z,4.90
2018-07-19T23:22:01.685Z,6.00
2018-07-19T23:24:30.449Z,6.90
2018-07-19T23:26:59.209Z,4.10
2018-07-19T23:29:28.097Z,4.40
2018-07-19T23:31:56.845Z,4.20
2018-07-19T23:34:25.608Z,4.10
2018-07-19T23:36:58.861Z,4.03
2018-07-19T23:39:31.862Z,11.90
2018-07-19T23:42:05.396Z,3.87
2018-07-19T23:44:39.301Z,5.13
2018-07-19T23:47:12.832Z,4.83
2018-07-19T23:49:41.599Z,4.47
2018-07-19T23:52:10.414Z,4.47
2018-07-19T23:54:39.191Z,5.37
2018-07-19T23:57:08.092Z,4.73
2018-07-19T23:59:36.893Z,6.10
